Robert Gray Army Air Field Airport Fort Hood,Killeen US
ICAO: KGRK
IATA: GRK
Category: Medium
Scheduled Services: Yes

Elevation: 1015 ft
TransAlt. 18000 ft.

Airport Communications:
GRAY APP/DEP:120.075
ATIS:111.8
CLNC DEL:121.8
GRAY GND:126.2
RANGE CTL:30.45
FT HOOD FLT FLW:38.75
PMSV GRAY METRO:41.2
PTD:38.7
TWR:120.75

KGRK Zoom In..

Runways:

(A) RW 15 length 10000 ft width 200 ft
ILS 111.10 / hdg 150

(B) RW 33 length 10000 ft width 200 ft
ILS 109.35 / hdg 330

Location; KGRK
Day. 23 / Time. 21.58 Zulu
* Altimeter: 30.22
* Temperature: 17° c. 62.6°f.
* Wind from: 350° Speed 07 kn.
Dewpoint: -13° c.
Visibility: 10 Statute Miles.
Clouds: Clear (automated report).

KGRK 232158Z AUTO 35007KT 10SM CLR 17/M13 A3022 RMK AO2 SLP236 T01731126


Wind From 350°
Speed 07 kn.

YouTube Music Video
 
jpsmedia.com for Web Design  worldairports.se 2018   terms of use